sensor_id;sensor_type;location;lat;lon;timestamp;P1;durP1;ratioP1;P2;durP2;ratioP2
24677;SDS011;12800;53.094;8.778;2024-03-23T00:53:44;15.60;;;4.57;;
24677;SDS011;12800;53.094;8.778;2024-03-23T00:56:09;15.87;;;3.67;;
24677;SDS011;12800;53.094;8.778;2024-03-23T00:58:35;19.60;;;3.67;;
24677;SDS011;12800;53.094;8.778;2024-03-23T01:01:00;13.67;;;3.07;;
24677;SDS011;12800;53.094;8.778;2024-03-23T01:03:28;17.60;;;3.93;;
24677;SDS011;12800;53.094;8.778;2024-03-23T01:05:54;18.40;;;3.47;;
24677;SDS011;12800;53.094;8.778;2024-03-23T01:08:23;18.53;;;3.70;;
24677;SDS011;12800;53.094;8.778;2024-03-23T01:10:59;23.30;;;4.27;;
24677;SDS011;12800;53.094;8.778;2024-03-23T01:13:25;17.50;;;3.70;;
24677;SDS011;12800;53.094;8.778;2024-03-23T01:15:52;17.70;;;3.90;;
24677;SDS011;12800;53.094;8.778;2024-03-23T01:18:19;17.17;;;3.53;;
24677;SDS011;12800;53.094;8.778;2024-03-23T01:20:45;15.90;;;4.10;;
24677;SDS011;12800;53.094;8.778;2024-03-23T01:23:11;23.17;;;3.80;;
24677;SDS011;12800;53.094;8.778;2024-03-23T01:25:36;15.50;;;3.60;;
24677;SDS011;12800;53.094;8.778;2024-03-23T01:28:02;16.83;;;3.67;;
24677;SDS011;12800;53.094;8.778;2024-03-23T01:30:28;13.17;;;3.40;;
24677;SDS011;12800;53.094;8.778;2024-03-23T01:32:54;26.03;;;4.67;;
24677;SDS011;12800;53.094;8.778;2024-03-23T01:35:19;25.33;;;5.30;;
24677;SDS011;12800;53.094;8.778;2024-03-23T01:37:45;19.37;;;3.77;;
24677;SDS011;12800;53.094;8.778;2024-03-23T01:40:10;16.10;;;3.40;;
24677;SDS011;12800;53.094;8.778;2024-03-23T01:42:38;17.37;;;4.37;;
24677;SDS011;12800;53.094;8.778;2024-03-23T01:45:06;17.30;;;3.53;;
24677;SDS011;12800;53.094;8.778;2024-03-23T01:47:34;12.60;;;3.33;;
24677;SDS011;12800;53.094;8.778;2024-03-23T01:50:00;18.53;;;3.67;;
24677;SDS011;12800;53.094;8.778;2024-03-23T01:52:26;25.60;;;3.67;;
24677;SDS011;12800;53.094;8.778;2024-03-23T01:54:52;17.43;;;3.97;;
24677;SDS011;12800;53.094;8.778;2024-03-23T01:57:18;14.40;;;3.10;;
24677;SDS011;12800;53.094;8.778;2024-03-23T01:59:45;19.17;;;3.63;;
24677;SDS011;12800;53.094;8.778;2024-03-23T02:02:12;14.23;;;3.83;;
24677;SDS011;12800;53.094;8.778;2024-03-23T02:04:37;15.17;;;4.13;;
24677;SDS011;12800;53.094;8.778;2024-03-23T02:07:03;26.67;;;4.07;;
24677;SDS011;12800;53.094;8.778;2024-03-23T02:09:31;12.80;;;3.07;;
24677;SDS011;12800;53.094;8.778;2024-03-23T02:11:57;26.07;;;3.77;;
24677;SDS011;12800;53.094;8.778;2024-03-23T02:14:23;16.97;;;4.00;;
24677;SDS011;12800;53.094;8.778;2024-03-23T02:16:48;17.80;;;3.53;;
24677;SDS011;12800;53.094;8.778;2024-03-23T02:19:14;16.97;;;3.70;;
24677;SDS011;12800;53.094;8.778;2024-03-23T02:21:39;15.67;;;3.90;;
24677;SDS011;12800;53.094;8.778;2024-03-23T02:24:05;16.67;;;4.13;;
24677;SDS011;12800;53.094;8.778;2024-03-23T02:26:31;20.43;;;3.87;;
24677;SDS011;12800;53.094;8.778;2024-03-23T02:28:56;15.67;;;4.33;;
24677;SDS011;12800;53.094;8.778;2024-03-23T02:31:22;16.33;;;3.50;;
24677;SDS011;12800;53.094;8.778;2024-03-23T02:33:47;13.10;;;2.80;;
24677;SDS011;12800;53.094;8.778;2024-03-23T02:36:13;15.30;;;3.70;;
24677;SDS011;12800;53.094;8.778;2024-03-23T02:38:39;24.33;;;3.93;;
24677;SDS011;12800;53.094;8.778;2024-03-23T02:41:04;16.70;;;3.97;;
24677;SDS011;12800;53.094;8.778;2024-03-23T02:43:30;90.33;;;51.00;;
24677;SDS011;12800;53.094;8.778;2024-03-23T02:45:56;43.70;;;25.63;;
24677;SDS011;12800;53.094;8.778;2024-03-23T02:48:22;25.87;;;6.70;;
24677;SDS011;12800;53.094;8.778;2024-03-23T02:50:48;16.53;;;4.73;;
24677;SDS011;12800;53.094;8.778;2024-03-23T02:53:14;18.70;;;3.27;;
24677;SDS011;12800;53.094;8.778;2024-03-23T02:55:39;11.73;;;3.77;;
24677;SDS011;12800;53.094;8.778;2024-03-23T02:58:05;13.13;;;3.40;;
24677;SDS011;12800;53.094;8.778;2024-03-23T03:00:31;18.73;;;3.83;;
24677;SDS011;12800;53.094;8.778;2024-03-23T03:02:56;16.97;;;2.83;;
24677;SDS011;12800;53.094;8.778;2024-03-23T03:05:22;21.43;;;3.33;;
24677;SDS011;12800;53.094;8.778;2024-03-23T03:07:47;17.63;;;3.30;;
24677;SDS011;12800;53.094;8.778;2024-03-23T03:10:13;23.50;;;4.33;;
24677;SDS011;12800;53.094;8.778;2024-03-23T03:12:39;16.87;;;3.53;;
24677;SDS011;12800;53.094;8.778;2024-03-23T03:15:05;18.07;;;4.60;;
24677;SDS011;12800;53.094;8.778;2024-03-23T03:17:31;18.83;;;4.07;;
24677;SDS011;12800;53.094;8.778;2024-03-23T03:19:56;17.23;;;3.47;;
24677;SDS011;12800;53.094;8.778;2024-03-23T03:22:22;15.80;;;3.47;;
24677;SDS011;12800;53.094;8.778;2024-03-23T03:24:49;17.00;;;3.90;;
24677;SDS011;12800;53.094;8.778;2024-03-23T03:27:14;16.53;;;3.50;;
24677;SDS011;12800;53.094;8.778;2024-03-23T03:29:40;13.63;;;3.50;;
24677;SDS011;12800;53.094;8.778;2024-03-23T03:32:05;12.77;;;3.57;;
24677;SDS011;12800;53.094;8.778;2024-03-23T03:34:31;16.83;;;3.90;;
24677;SDS011;12800;53.094;8.778;2024-03-23T03:36:57;16.00;;;3.87;;
24677;SDS011;12800;53.094;8.778;2024-03-23T03:39:23;17.63;;;4.60;;
24677;SDS011;12800;53.094;8.778;2024-03-23T03:41:49;25.67;;;4.17;;
24677;SDS011;12800;53.094;8.778;2024-03-23T03:44:15;20.97;;;4.30;;
24677;SDS011;12800;53.094;8.778;2024-03-23T03:46:41;10.63;;;3.00;;
24677;SDS011;12800;53.094;8.778;2024-03-23T03:49:07;14.93;;;3.40;;
24677;SDS011;12800;53.094;8.778;2024-03-23T03:51:33;21.17;;;3.23;;
24677;SDS011;12800;53.094;8.778;2024-03-23T03:53:58;16.83;;;3.50;;
24677;SDS011;12800;53.094;8.778;2024-03-23T03:56:24;17.27;;;3.57;;
24677;SDS011;12800;53.094;8.778;2024-03-23T03:58:49;17.83;;;3.97;;
24677;SDS011;12800;53.094;8.778;2024-03-23T04:01:15;16.10;;;3.80;;
24677;SDS011;12800;53.094;8.778;2024-03-23T04:03:41;17.43;;;3.83;;
24677;SDS011;12800;53.094;8.778;2024-03-23T04:06:08;16.57;;;4.50;;
24677;SDS011;12800;53.094;8.778;2024-03-23T04:08:34;18.13;;;4.13;;
24677;SDS011;12800;53.094;8.778;2024-03-23T04:11:00;19.97;;;3.17;;
24677;SDS011;12800;53.094;8.778;2024-03-23T04:13:26;10.90;;;3.03;;
24677;SDS011;12800;53.094;8.778;2024-03-23T04:15:55;15.57;;;3.20;;
24677;SDS011;12800;53.094;8.778;2024-03-23T04:18:21;17.30;;;3.13;;
24677;SDS011;12800;53.094;8.778;2024-03-23T04:20:48;14.90;;;3.60;;
24677;SDS011;12800;53.094;8.778;2024-03-23T04:23:14;18.50;;;3.50;;
24677;SDS011;12800;53.094;8.778;2024-03-23T04:25:40;11.73;;;2.83;;
24677;SDS011;12800;53.094;8.778;2024-03-23T04:28:05;18.53;;;3.20;;
24677;SDS011;12800;53.094;8.778;2024-03-23T04:30:31;17.00;;;4.37;;
24677;SDS011;12800;53.094;8.778;2024-03-23T04:32:57;17.37;;;3.83;;
24677;SDS011;12800;53.094;8.778;2024-03-23T04:35:23;15.47;;;3.53;;
24677;SDS011;12800;53.094;8.778;2024-03-23T04:37:55;18.83;;;3.63;;
24677;SDS011;12800;53.094;8.778;2024-03-23T04:40:21;12.97;;;3.33;;
24677;SDS011;12800;53.094;8.778;2024-03-23T04:42:46;19.23;;;3.67;;
24677;SDS011;12800;53.094;8.778;2024-03-23T04:45:12;20.17;;;3.97;;
24677;SDS011;12800;53.094;8.778;2024-03-23T04:47:38;11.00;;;2.53;;
24677;SDS011;12800;53.094;8.778;2024-03-23T04:50:04;16.47;;;4.27;;
24677;SDS011;12800;53.094;8.778;2024-03-23T04:52:30;12.83;;;3.10;;
24677;SDS011;12800;53.094;8.778;2024-03-23T04:54:55;16.17;;;3.60;;
24677;SDS011;12800;53.094;8.778;2024-03-23T04:57:21;14.50;;;3.27;;
24677;SDS011;12800;53.094;8.778;2024-03-23T04:59:47;15.77;;;3.93;;
24677;SDS011;12800;53.094;8.778;2024-03-23T05:02:13;18.40;;;3.40;;
24677;SDS011;12800;53.094;8.778;2024-03-23T05:04:39;10.70;;;3.20;;
24677;SDS011;12800;53.094;8.778;2024-03-23T05:07:05;19.10;;;4.00;;
24677;SDS011;12800;53.094;8.778;2024-03-23T05:09:31;16.20;;;3.33;;
24677;SDS011;12800;53.094;8.778;2024-03-23T05:11:58;16.50;;;4.07;;
24677;SDS011;12800;53.094;8.778;2024-03-23T05:14:26;12.23;;;3.17;;
24677;SDS011;12800;53.094;8.778;2024-03-23T05:16:52;19.00;;;4.07;;
24677;SDS011;12800;53.094;8.778;2024-03-23T05:19:18;16.63;;;3.60;;
24677;SDS011;12800;53.094;8.778;2024-03-23T05:21:43;20.40;;;3.90;;
24677;SDS011;12800;53.094;8.778;2024-03-23T05:24:09;17.30;;;4.37;;
24677;SDS011;12800;53.094;8.778;2024-03-23T05:26:35;18.33;;;3.87;;
24677;SDS011;12800;53.094;8.778;2024-03-23T05:29:01;15.70;;;3.40;;
24677;SDS011;12800;53.094;8.778;2024-03-23T05:31:28;20.27;;;4.20;;
24677;SDS011;12800;53.094;8.778;2024-03-23T05:33:55;20.87;;;3.97;;
24677;SDS011;12800;53.094;8.778;2024-03-23T05:36:20;13.87;;;3.27;;
24677;SDS011;12800;53.094;8.778;2024-03-23T05:38:46;14.53;;;3.70;;
24677;SDS011;12800;53.094;8.778;2024-03-23T05:41:12;15.27;;;4.27;;
24677;SDS011;12800;53.094;8.778;2024-03-23T05:43:38;19.90;;;4.17;;
24677;SDS011;12800;53.094;8.778;2024-03-23T05:46:04;15.87;;;3.30;;
24677;SDS011;12800;53.094;8.778;2024-03-23T05:48:33;15.87;;;3.00;;
24677;SDS011;12800;53.094;8.778;2024-03-23T05:50:59;12.17;;;2.93;;
24677;SDS011;12800;53.094;8.778;2024-03-23T05:53:25;13.30;;;3.40;;
24677;SDS011;12800;53.094;8.778;2024-03-23T05:55:51;12.90;;;2.80;;
24677;SDS011;12800;53.094;8.778;2024-03-23T05:58:24;18.27;;;3.50;;
24677;SDS011;12800;53.094;8.778;2024-03-23T06:00:56;14.93;;;3.50;;
24677;SDS011;12800;53.094;8.778;2024-03-23T06:03:26;13.47;;;3.13;;
24677;SDS011;12800;53.094;8.778;2024-03-23T06:05:52;18.63;;;4.80;;
24677;SDS011;12800;53.094;8.778;2024-03-23T06:08:18;13.70;;;3.60;;
24677;SDS011;12800;53.094;8.778;2024-03-23T06:10:44;15.77;;;3.13;;
24677;SDS011;12800;53.094;8.778;2024-03-23T06:13:11;15.80;;;2.90;;
24677;SDS011;12800;53.094;8.778;2024-03-23T06:15:37;15.67;;;3.50;;
24677;SDS011;12800;53.094;8.778;2024-03-23T06:18:03;14.87;;;3.83;;
24677;SDS011;12800;53.094;8.778;2024-03-23T06:20:30;13.67;;;3.80;;
24677;SDS011;12800;53.094;8.778;2024-03-23T06:22:56;16.80;;;3.67;;
24677;SDS011;12800;53.094;8.778;2024-03-23T06:25:21;19.50;;;4.93;;
24677;SDS011;12800;53.094;8.778;2024-03-23T06:27:47;14.20;;;3.33;;
24677;SDS011;12800;53.094;8.778;2024-03-23T06:30:13;14.17;;;3.83;;
24677;SDS011;12800;53.094;8.778;2024-03-23T06:32:38;14.40;;;4.03;;
24677;SDS011;12800;53.094;8.778;2024-03-23T06:35:04;14.33;;;3.13;;
24677;SDS011;12800;53.094;8.778;2024-03-23T06:37:33;16.53;;;3.07;;
24677;SDS011;12800;53.094;8.778;2024-03-23T06:40:00;15.63;;;3.90;;
24677;SDS011;12800;53.094;8.778;2024-03-23T06:42:26;13.73;;;3.17;;
24677;SDS011;12800;53.094;8.778;2024-03-23T06:44:51;8.87;;;2.67;;
24677;SDS011;12800;53.094;8.778;2024-03-23T06:47:17;20.57;;;3.80;;
24677;SDS011;12800;53.094;8.778;2024-03-23T06:49:42;17.33;;;6.23;;
24677;SDS011;12800;53.094;8.778;2024-03-23T06:52:08;20.10;;;3.90;;
24677;SDS011;12800;53.094;8.778;2024-03-23T06:54:34;16.67;;;4.07;;
24677;SDS011;12800;53.094;8.778;2024-03-23T06:56:59;20.60;;;4.53;;
24677;SDS011;12800;53.094;8.778;2024-03-23T06:59:25;13.27;;;3.50;;
24677;SDS011;12800;53.094;8.778;2024-03-23T07:01:50;11.73;;;3.17;;
24677;SDS011;12800;53.094;8.778;2024-03-23T07:04:16;17.43;;;4.40;;
24677;SDS011;12800;53.094;8.778;2024-03-23T07:06:42;19.07;;;3.43;;
24677;SDS011;12800;53.094;8.778;2024-03-23T07:09:09;14.93;;;3.33;;
24677;SDS011;12800;53.094;8.778;2024-03-23T07:11:35;14.20;;;3.83;;
24677;SDS011;12800;53.094;8.778;2024-03-23T07:14:00;22.17;;;3.67;;
24677;SDS011;12800;53.094;8.778;2024-03-23T07:16:27;14.60;;;3.50;;
24677;SDS011;12800;53.094;8.778;2024-03-23T07:18:53;17.80;;;3.27;;
24677;SDS011;12800;53.094;8.778;2024-03-23T07:21:19;21.70;;;5.27;;
24677;SDS011;12800;53.094;8.778;2024-03-23T07:23:44;11.80;;;4.03;;
24677;SDS011;12800;53.094;8.778;2024-03-23T07:26:10;11.33;;;3.17;;
24677;SDS011;12800;53.094;8.778;2024-03-23T07:28:38;13.17;;;4.03;;
24677;SDS011;12800;53.094;8.778;2024-03-23T07:31:08;15.53;;;3.27;;
24677;SDS011;12800;53.094;8.778;2024-03-23T07:33:41;11.23;;;3.23;;
24677;SDS011;12800;53.094;8.778;2024-03-23T07:36:08;17.20;;;3.27;;
24677;SDS011;12800;53.094;8.778;2024-03-23T07:38:34;13.37;;;2.50;;
24677;SDS011;12800;53.094;8.778;2024-03-23T07:41:09;13.47;;;2.70;;
24677;SDS011;12800;53.094;8.778;2024-03-23T07:43:37;12.70;;;2.90;;
24677;SDS011;12800;53.094;8.778;2024-03-23T07:46:04;16.00;;;2.93;;
24677;SDS011;12800;53.094;8.778;2024-03-23T07:48:30;17.10;;;2.93;;
24677;SDS011;12800;53.094;8.778;2024-03-23T07:50:59;16.37;;;3.30;;
24677;SDS011;12800;53.094;8.778;2024-03-23T07:53:26;14.57;;;4.00;;
24677;SDS011;12800;53.094;8.778;2024-03-23T07:55:54;18.10;;;3.43;;
24677;SDS011;12800;53.094;8.778;2024-03-23T07:58:22;15.17;;;3.63;;
24677;SDS011;12800;53.094;8.778;2024-03-23T08:00:49;9.73;;;3.23;;
24677;SDS011;12800;53.094;8.778;2024-03-23T08:03:15;10.03;;;2.83;;
24677;SDS011;12800;53.094;8.778;2024-03-23T08:05:40;10.30;;;2.50;;
24677;SDS011;12800;53.094;8.778;2024-03-23T08:08:06;11.03;;;3.03;;
24677;SDS011;12800;53.094;8.778;2024-03-23T08:10:32;12.80;;;2.90;;
24677;SDS011;12800;53.094;8.778;2024-03-23T08:12:58;11.20;;;2.80;;
24677;SDS011;12800;53.094;8.778;2024-03-23T08:15:23;11.53;;;2.90;;
24677;SDS011;12800;53.094;8.778;2024-03-23T08:17:49;12.13;;;3.27;;
24677;SDS011;12800;53.094;8.778;2024-03-23T08:20:15;16.40;;;3.13;;
24677;SDS011;12800;53.094;8.778;2024-03-23T08:22:41;17.20;;;3.77;;
24677;SDS011;12800;53.094;8.778;2024-03-23T08:25:07;13.73;;;3.23;;
24677;SDS011;12800;53.094;8.778;2024-03-23T08:27:32;13.60;;;2.63;;
24677;SDS011;12800;53.094;8.778;2024-03-23T08:29:58;11.87;;;3.00;;
24677;SDS011;12800;53.094;8.778;2024-03-23T08:32:23;11.43;;;2.87;;
24677;SDS011;12800;53.094;8.778;2024-03-23T08:34:49;11.37;;;3.10;;
24677;SDS011;12800;53.094;8.778;2024-03-23T08:37:15;8.63;;;2.40;;
24677;SDS011;12800;53.094;8.778;2024-03-23T08:39:42;10.00;;;2.23;;
24677;SDS011;12800;53.094;8.778;2024-03-23T08:42:08;12.07;;;2.73;;
24677;SDS011;12800;53.094;8.778;2024-03-23T08:44:34;6.43;;;2.83;;
24677;SDS011;12800;53.094;8.778;2024-03-23T08:47:00;11.47;;;2.77;;
24677;SDS011;12800;53.094;8.778;2024-03-23T08:49:26;14.23;;;2.63;;
24677;SDS011;12800;53.094;8.778;2024-03-23T08:51:52;13.73;;;2.20;;
24677;SDS011;12800;53.094;8.778;2024-03-23T08:54:19;8.33;;;2.17;;
24677;SDS011;12800;53.094;8.778;2024-03-23T08:56:45;9.60;;;2.07;;
24677;SDS011;12800;53.094;8.778;2024-03-23T08:59:11;13.10;;;2.93;;
24677;SDS011;12800;53.094;8.778;2024-03-23T09:01:36;14.47;;;2.40;;
24677;SDS011;12800;53.094;8.778;2024-03-23T09:04:03;12.77;;;1.97;;
24677;SDS011;12800;53.094;8.778;2024-03-23T09:06:29;9.97;;;1.83;;
24677;SDS011;12800;53.094;8.778;2024-03-23T09:08:54;9.20;;;1.97;;
24677;SDS011;12800;53.094;8.778;2024-03-23T09:11:20;13.27;;;2.30;;
24677;SDS011;12800;53.094;8.778;2024-03-23T09:13:46;10.47;;;2.33;;
24677;SDS011;12800;53.094;8.778;2024-03-23T09:16:11;7.40;;;1.77;;
24677;SDS011;12800;53.094;8.778;2024-03-23T09:18:37;10.13;;;1.63;;
24677;SDS011;12800;53.094;8.778;2024-03-23T09:21:03;5.97;;;1.87;;
24677;SDS011;12800;53.094;8.778;2024-03-23T09:23:29;26.60;;;13.40;;
24677;SDS011;12800;53.094;8.778;2024-03-23T09:25:55;14.37;;;5.60;;
24677;SDS011;12800;53.094;8.778;2024-03-23T09:28:21;8.97;;;2.30;;
24677;SDS011;12800;53.094;8.778;2024-03-23T09:30:47;6.90;;;1.77;;
24677;SDS011;12800;53.094;8.778;2024-03-23T09:33:13;9.00;;;2.13;;
24677;SDS011;12800;53.094;8.778;2024-03-23T09:35:39;9.60;;;2.43;;
24677;SDS011;12800;53.094;8.778;2024-03-23T09:38:05;7.83;;;2.20;;
24677;SDS011;12800;53.094;8.778;2024-03-23T09:40:35;8.90;;;1.90;;
24677;SDS011;12800;53.094;8.778;2024-03-23T09:43:07;7.33;;;2.40;;
24677;SDS011;12800;53.094;8.778;2024-03-23T09:45:35;6.97;;;2.13;;
24677;SDS011;12800;53.094;8.778;2024-03-23T09:48:03;8.50;;;1.97;;
24677;SDS011;12800;53.094;8.778;2024-03-23T09:50:29;5.83;;;1.93;;
24677;SDS011;12800;53.094;8.778;2024-03-23T09:52:55;9.10;;;1.73;;
24677;SDS011;12800;53.094;8.778;2024-03-23T09:55:21;7.10;;;1.70;;
24677;SDS011;12800;53.094;8.778;2024-03-23T09:57:46;6.17;;;1.80;;
24677;SDS011;12800;53.094;8.778;2024-03-23T10:00:12;5.43;;;1.57;;
24677;SDS011;12800;53.094;8.778;2024-03-23T10:02:38;6.00;;;1.73;;
24677;SDS011;12800;53.094;8.778;2024-03-23T10:05:04;9.63;;;1.70;;
24677;SDS011;12800;53.094;8.778;2024-03-23T10:07:44;4.73;;;1.40;;
24677;SDS011;12800;53.094;8.778;2024-03-23T10:10:10;29.67;;;14.33;;
24677;SDS011;12800;53.094;8.778;2024-03-23T10:12:40;16.17;;;7.60;;
24677;SDS011;12800;53.094;8.778;2024-03-23T10:15:15;6.93;;;1.83;;
24677;SDS011;12800;53.094;8.778;2024-03-23T10:17:44;7.83;;;1.83;;
24677;SDS011;12800;53.094;8.778;2024-03-23T10:20:10;7.13;;;1.67;;
24677;SDS011;12800;53.094;8.778;2024-03-23T10:22:37;8.73;;;2.30;;
24677;SDS011;12800;53.094;8.778;2024-03-23T10:25:09;11.83;;;1.80;;
24677;SDS011;12800;53.094;8.778;2024-03-23T10:27:35;5.87;;;2.00;;
24677;SDS011;12800;53.094;8.778;2024-03-23T10:30:08;5.10;;;1.57;;
24677;SDS011;12800;53.094;8.778;2024-03-23T10:32:38;7.17;;;1.83;;
24677;SDS011;12800;53.094;8.778;2024-03-23T10:35:16;9.50;;;1.90;;
24677;SDS011;12800;53.094;8.778;2024-03-23T10:37:47;6.47;;;1.73;;
24677;SDS011;12800;53.094;8.778;2024-03-23T10:40:14;5.63;;;1.50;;
24677;SDS011;12800;53.094;8.778;2024-03-23T10:42:40;5.50;;;1.90;;
24677;SDS011;12800;53.094;8.778;2024-03-23T10:45:06;4.10;;;1.67;;
24677;SDS011;12800;53.094;8.778;2024-03-23T10:47:34;6.30;;;1.50;;
24677;SDS011;12800;53.094;8.778;2024-03-23T10:50:00;6.70;;;2.17;;
24677;SDS011;12800;53.094;8.778;2024-03-23T10:52:26;5.17;;;1.97;;
24677;SDS011;12800;53.094;8.778;2024-03-23T10:54:52;5.93;;;1.70;;
24677;SDS011;12800;53.094;8.778;2024-03-23T10:57:18;7.47;;;1.70;;
24677;SDS011;12800;53.094;8.778;2024-03-23T10:59:48;4.20;;;1.50;;
24677;SDS011;12800;53.094;8.778;2024-03-23T11:02:20;6.43;;;1.93;;
24677;SDS011;12800;53.094;8.778;2024-03-23T11:04:47;4.87;;;1.10;;
24677;SDS011;12800;53.094;8.778;2024-03-23T11:07:29;7.00;;;1.60;;
24677;SDS011;12800;53.094;8.778;2024-03-23T11:09:56;6.77;;;1.80;;
24677;SDS011;12800;53.094;8.778;2024-03-23T11:14:49;5.07;;;1.90;;
24677;SDS011;12800;53.094;8.778;2024-03-23T11:17:23;4.73;;;1.37;;
24677;SDS011;12800;53.094;8.778;2024-03-23T11:19:59;6.90;;;1.70;;
24677;SDS011;12800;53.094;8.778;2024-03-23T11:25:19;5.03;;;1.60;;
24677;SDS011;12800;53.094;8.778;2024-03-23T11:27:51;5.37;;;1.60;;
24677;SDS011;12800;53.094;8.778;2024-03-23T11:30:24;4.60;;;1.30;;
24677;SDS011;12800;53.094;8.778;2024-03-23T11:32:55;7.57;;;1.93;;
24677;SDS011;12800;53.094;8.778;2024-03-23T11:35:32;4.60;;;1.40;;
24677;SDS011;12800;53.094;8.778;2024-03-23T11:38:06;3.90;;;1.40;;
24677;SDS011;12800;53.094;8.778;2024-03-23T11:40:38;5.97;;;1.47;;
24677;SDS011;12800;53.094;8.778;2024-03-23T11:43:15;7.93;;;1.87;;
24677;SDS011;12800;53.094;8.778;2024-03-23T11:45:45;3.77;;;1.37;;
24677;SDS011;12800;53.094;8.778;2024-03-23T11:48:20;4.10;;;1.20;;
24677;SDS011;12800;53.094;8.778;2024-03-23T11:50:47;5.93;;;1.47;;
24677;SDS011;12800;53.094;8.778;2024-03-23T11:53:16;5.00;;;1.27;;
24677;SDS011;12800;53.094;8.778;2024-03-23T11:55:52;5.43;;;1.20;;
24677;SDS011;12800;53.094;8.778;2024-03-23T11:58:21;4.63;;;1.00;;
24677;SDS011;12800;53.094;8.778;2024-03-23T12:00:51;3.47;;;1.10;;
24677;SDS011;12800;53.094;8.778;2024-03-23T12:03:20;6.97;;;1.40;;
24677;SDS011;12800;53.094;8.778;2024-03-23T12:05:50;8.80;;;1.63;;
24677;SDS011;12800;53.094;8.778;2024-03-23T12:08:31;6.40;;;1.37;;
24677;SDS011;12800;53.094;8.778;2024-03-23T12:11:16;4.43;;;1.00;;
24677;SDS011;12800;53.094;8.778;2024-03-23T12:13:43;2.83;;;1.10;;
24677;SDS011;12800;53.094;8.778;2024-03-23T12:16:14;6.17;;;1.63;;
24677;SDS011;12800;53.094;8.778;2024-03-23T12:18:47;4.70;;;1.30;;
24677;SDS011;12800;53.094;8.778;2024-03-23T12:21:14;5.03;;;1.33;;
24677;SDS011;12800;53.094;8.778;2024-03-23T12:23:40;2.30;;;1.00;;
24677;SDS011;12800;53.094;8.778;2024-03-23T12:26:07;4.67;;;1.57;;
24677;SDS011;12800;53.094;8.778;2024-03-23T12:28:33;3.73;;;1.53;;
24677;SDS011;12800;53.094;8.778;2024-03-23T12:30:59;3.40;;;1.77;;
24677;SDS011;12800;53.094;8.778;2024-03-23T12:33:25;6.90;;;1.73;;
24677;SDS011;12800;53.094;8.778;2024-03-23T12:35:50;6.10;;;2.30;;
24677;SDS011;12800;53.094;8.778;2024-03-23T12:38:16;2.80;;;1.47;;
24677;SDS011;12800;53.094;8.778;2024-03-23T12:40:45;4.03;;;0.90;;
24677;SDS011;12800;53.094;8.778;2024-03-23T12:43:13;5.47;;;1.67;;
24677;SDS011;12800;53.094;8.778;2024-03-23T12:45:39;4.00;;;1.20;;
24677;SDS011;12800;53.094;8.778;2024-03-23T12:48:04;3.33;;;1.30;;
24677;SDS011;12800;53.094;8.778;2024-03-23T12:50:30;4.93;;;0.60;;
24677;SDS011;12800;53.094;8.778;2024-03-23T12:52:56;3.93;;;0.70;;
24677;SDS011;12800;53.094;8.778;2024-03-23T12:55:21;1.73;;;0.70;;
24677;SDS011;12800;53.094;8.778;2024-03-23T12:57:47;1.03;;;0.40;;
24677;SDS011;12800;53.094;8.778;2024-03-23T13:00:13;1.93;;;0.53;;
24677;SDS011;12800;53.094;8.778;2024-03-23T13:02:40;3.97;;;0.70;;
24677;SDS011;12800;53.094;8.778;2024-03-23T13:05:06;3.60;;;0.80;;
24677;SDS011;12800;53.094;8.778;2024-03-23T13:07:33;3.63;;;0.80;;
24677;SDS011;12800;53.094;8.778;2024-03-23T13:10:00;3.97;;;0.80;;
24677;SDS011;12800;53.094;8.778;2024-03-23T13:12:26;2.70;;;0.80;;
24677;SDS011;12800;53.094;8.778;2024-03-23T13:14:51;3.60;;;1.20;;
24677;SDS011;12800;53.094;8.778;2024-03-23T13:17:17;5.40;;;0.90;;
24677;SDS011;12800;53.094;8.778;2024-03-23T13:19:43;3.70;;;1.00;;
24677;SDS011;12800;53.094;8.778;2024-03-23T13:22:09;4.40;;;1.10;;
24677;SDS011;12800;53.094;8.778;2024-03-23T13:24:37;21.37;;;12.40;;
24677;SDS011;12800;53.094;8.778;2024-03-23T13:27:03;23.90;;;12.83;;
24677;SDS011;12800;53.094;8.778;2024-03-23T13:29:32;4.27;;;1.97;;
24677;SDS011;12800;53.094;8.778;2024-03-23T13:31:59;5.57;;;1.00;;
24677;SDS011;12800;53.094;8.778;2024-03-23T13:34:25;1.80;;;1.00;;
24677;SDS011;12800;53.094;8.778;2024-03-23T13:36:51;7.00;;;0.60;;
24677;SDS011;12800;53.094;8.778;2024-03-23T13:39:16;4.00;;;0.87;;
24677;SDS011;12800;53.094;8.778;2024-03-23T13:44:10;1.20;;;0.80;;
24677;SDS011;12800;53.094;8.778;2024-03-23T13:46:36;5.80;;;1.27;;
24677;SDS011;12800;53.094;8.778;2024-03-23T13:49:03;2.50;;;0.70;;
24677;SDS011;12800;53.094;8.778;2024-03-23T13:51:28;3.80;;;1.20;;
24677;SDS011;12800;53.094;8.778;2024-03-23T13:53:54;4.57;;;1.43;;
24677;SDS011;12800;53.094;8.778;2024-03-23T13:56:26;4.83;;;2.00;;
24677;SDS011;12800;53.094;8.778;2024-03-23T13:58:53;5.37;;;2.53;;
24677;SDS011;12800;53.094;8.778;2024-03-23T14:01:20;3.63;;;1.70;;
24677;SDS011;12800;53.094;8.778;2024-03-23T14:03:46;6.63;;;2.73;;
24677;SDS011;12800;53.094;8.778;2024-03-23T14:06:11;4.43;;;1.63;;
24677;SDS011;12800;53.094;8.778;2024-03-23T14:08:37;1.53;;;0.60;;
24677;SDS011;12800;53.094;8.778;2024-03-23T14:11:07;2.57;;;0.80;;
24677;SDS011;12800;53.094;8.778;2024-03-23T14:13:33;2.40;;;1.10;;
24677;SDS011;12800;53.094;8.778;2024-03-23T14:16:00;6.23;;;1.43;;
24677;SDS011;12800;53.094;8.778;2024-03-23T14:18:26;1.17;;;0.90;;
24677;SDS011;12800;53.094;8.778;2024-03-23T14:20:52;2.63;;;1.53;;
24677;SDS011;12800;53.094;8.778;2024-03-23T14:23:23;3.87;;;1.00;;
24677;SDS011;12800;53.094;8.778;2024-03-23T14:25:49;3.20;;;1.10;;
24677;SDS011;12800;53.094;8.778;2024-03-23T14:28:17;4.83;;;1.27;;
24677;SDS011;12800;53.094;8.778;2024-03-23T14:30:42;4.00;;;1.50;;
24677;SDS011;12800;53.094;8.778;2024-03-23T14:33:08;4.60;;;1.00;;
24677;SDS011;12800;53.094;8.778;2024-03-23T14:35:34;2.73;;;1.10;;
24677;SDS011;12800;53.094;8.778;2024-03-23T14:38:01;2.73;;;0.70;;
24677;SDS011;12800;53.094;8.778;2024-03-23T14:40:27;3.20;;;1.37;;
24677;SDS011;12800;53.094;8.778;2024-03-23T14:42:56;22.10;;;13.00;;
24677;SDS011;12800;53.094;8.778;2024-03-23T14:45:21;30.80;;;17.57;;
24677;SDS011;12800;53.094;8.778;2024-03-23T14:47:49;32.00;;;19.87;;
24677;SDS011;12800;53.094;8.778;2024-03-23T14:50:15;7.17;;;1.87;;
24677;SDS011;12800;53.094;8.778;2024-03-23T14:52:47;4.73;;;1.43;;
24677;SDS011;12800;53.094;8.778;2024-03-23T14:55:13;4.27;;;1.10;;
24677;SDS011;12800;53.094;8.778;2024-03-23T14:57:39;2.53;;;1.00;;
24677;SDS011;12800;53.094;8.778;2024-03-23T15:00:06;3.37;;;0.57;;
24677;SDS011;12800;53.094;8.778;2024-03-23T15:02:38;4.87;;;0.90;;
24677;SDS011;12800;53.094;8.778;2024-03-23T15:05:04;2.30;;;0.90;;
24677;SDS011;12800;53.094;8.778;2024-03-23T15:07:32;4.20;;;0.80;;
24677;SDS011;12800;53.094;8.778;2024-03-23T15:09:58;1.27;;;0.57;;
24677;SDS011;12800;53.094;8.778;2024-03-23T15:12:24;6.30;;;1.17;;
24677;SDS011;12800;53.094;8.778;2024-03-23T15:14:49;6.10;;;1.33;;
24677;SDS011;12800;53.094;8.778;2024-03-23T15:17:15;4.07;;;1.63;;
24677;SDS011;12800;53.094;8.778;2024-03-23T15:19:41;4.40;;;1.17;;
24677;SDS011;12800;53.094;8.778;2024-03-23T15:22:07;3.47;;;0.97;;
24677;SDS011;12800;53.094;8.778;2024-03-23T15:24:34;2.60;;;1.10;;
24677;SDS011;12800;53.094;8.778;2024-03-23T15:27:00;6.83;;;3.97;;
24677;SDS011;12800;53.094;8.778;2024-03-23T15:29:26;3.23;;;1.30;;
24677;SDS011;12800;53.094;8.778;2024-03-23T15:31:52;3.73;;;1.10;;
24677;SDS011;12800;53.094;8.778;2024-03-23T15:34:20;2.63;;;0.90;;
24677;SDS011;12800;53.094;8.778;2024-03-23T15:36:49;5.87;;;0.83;;
24677;SDS011;12800;53.094;8.778;2024-03-23T15:39:18;3.43;;;1.37;;